Main page
METAR-TAF:

METAR-TAF

Airports :

Valley, Wales

RAF Valley

latitude: 53-15N, longitude: 004-32W, elevation: 1 m

Current weather observation

The report was made 25 minutes ago, at 08:50 UTC
Wind 18 kt from the South
Temperature 11°C
Humidity 94%
Pressure 1015 hPa
Visibility: 9000 m
Overcast at a height of 700 ft
light rain

METAR: EGOV 290850Z 17018KT 9000 -RA OVC007 11/10 Q1015 BLACKGRN TEMPO 3000 RADZ OVC003 YLO2

Time: 10:15 (09:15 UTC)

Forecast

The report was made 1 hour and 28 minutes ago, at 07:47 UTC
Forecast valid from 29 at 09 UTC to 29 at 18 UTC
Wind 20 kt from the South
Visibility: 8000 m
Overcast at a height of 600 ft
mist
Becoming
from 29 at 09 UTC to 29 at 11 UTC
Overcast at a height of 700 ft
Temporary
from 29 at 09 UTC to 29 at 18 UTC
Visibility: 3000 m
Broken clouds at a height of 300 ft
rain, drizzle

TAF: EGOV 290747Z 2909/2918 18020KT 8000 BR OVC006 BECMG 2909/2911 OVC007 TEMPO 2909/2918 3000 RADZ BKN003

Weather observations and forecasts of more than 4000 airports (METAR and TAF reports).

The available stations are represented by yellow and red dots on the map.

Hover mouse over dot to see the name of the station.

Then click to see weather observations and forecasts.

To change the map : click on the green buttons with a black cross to zoom in, on the green button with a dash to zoom out, or on the green arrows for adjacent maps.


METAR-TAF: